createdAt,value
2022-07-30T00:00:06.190Z,18.52
2022-07-30T00:03:11.620Z,18.44
2022-07-30T00:06:17.813Z,18.40
2022-07-30T00:09:23.311Z,18.40
2022-07-30T00:12:28.963Z,18.42
2022-07-30T00:15:34.841Z,18.44
2022-07-30T00:18:40.393Z,18.43
2022-07-30T00:21:48.827Z,18.44
2022-07-30T00:24:54.303Z,18.41
2022-07-30T00:28:00.074Z,18.39
2022-07-30T00:31:05.573Z,18.37
2022-07-30T00:34:13.045Z,18.37
2022-07-30T00:37:18.512Z,18.31
2022-07-30T00:40:24.240Z,18.24
2022-07-30T00:43:29.729Z,18.17
2022-07-30T00:46:35.216Z,18.16
2022-07-30T00:49:44.254Z,18.17
2022-07-30T00:52:50.023Z,18.11
2022-07-30T00:55:55.508Z,18.07
2022-07-30T00:59:01.109Z,18.11
2022-07-30T01:02:06.773Z,18.15
2022-07-30T01:05:13.479Z,18.18
2022-07-30T01:08:19.144Z,18.13
2022-07-30T01:11:30.086Z,18.05
2022-07-30T01:14:37.374Z,18.00
2022-07-30T01:17:43.631Z,18.03
2022-07-30T01:21:00.922Z,18.09
2022-07-30T01:24:21.904Z,18.12
2022-07-30T01:27:29.995Z,18.13
2022-07-30T01:30:39.852Z,18.09
2022-07-30T01:33:49.190Z,18.04
2022-07-30T01:36:55.942Z,17.95
2022-07-30T01:40:01.900Z,17.90
2022-07-30T01:43:08.153Z,17.88
2022-07-30T01:46:14.959Z,17.90
2022-07-30T01:49:22.863Z,17.94
2022-07-30T01:52:31.320Z,17.97
2022-07-30T01:55:38.236Z,18.01
2022-07-30T01:58:45.193Z,18.06
2022-07-30T02:01:51.210Z,18.06
2022-07-30T02:04:55.156Z,18.09
2022-07-30T02:08:07.540Z,18.11
2022-07-30T02:11:16.405Z,18.11
2022-07-30T02:14:29.752Z,18.10
2022-07-30T02:17:45.234Z,18.10
2022-07-30T02:20:52.695Z,18.10
2022-07-30T02:23:59.275Z,18.12
2022-07-30T02:27:09.742Z,18.11
2022-07-30T02:30:16.382Z,18.04
2022-07-30T02:33:25.769Z,17.96
2022-07-30T02:36:33.827Z,17.95
2022-07-30T02:39:40.785Z,17.96
2022-07-30T02:42:52.638Z,17.99
2022-07-30T02:45:59.221Z,18.01
2022-07-30T02:49:06.737Z,18.04
2022-07-30T02:52:13.909Z,18.05
2022-07-30T02:55:20.980Z,18.06
2022-07-30T02:58:29.013Z,18.06
2022-07-30T03:01:36.944Z,18.07
2022-07-30T03:04:43.757Z,18.08
2022-07-30T03:07:50.429Z,18.09
2022-07-30T03:10:57.166Z,18.08
2022-07-30T03:14:03.084Z,18.08
2022-07-30T03:17:08.500Z,18.08
2022-07-30T03:20:18.547Z,18.05
2022-07-30T03:23:26.769Z,18.03
2022-07-30T03:26:34.768Z,18.04
2022-07-30T03:29:42.809Z,18.05
2022-07-30T03:32:49.292Z,18.04
2022-07-30T03:35:55.425Z,18.02
2022-07-30T03:39:01.279Z,18.00
2022-07-30T03:42:07.730Z,18.00
2022-07-30T03:45:15.199Z,18.01
2022-07-30T03:48:21.248Z,18.01
2022-07-30T03:51:25.888Z,18.00
2022-07-30T03:54:38.948Z,18.01
2022-07-30T03:57:44.922Z,18.02
2022-07-30T04:00:50.583Z,18.06
2022-07-30T04:03:54.720Z,18.06
2022-07-30T04:07:00.857Z,18.07
2022-07-30T04:10:08.396Z,18.08
2022-07-30T04:13:16.062Z,18.10
2022-07-30T04:16:39.447Z,18.13
2022-07-30T04:19:52.176Z,18.12
2022-07-30T04:22:58.732Z,18.13
2022-07-30T04:26:04.460Z,18.16
2022-07-30T04:29:13.344Z,18.17
2022-07-30T04:32:20.603Z,18.19
2022-07-30T04:35:51.641Z,18.21
2022-07-30T04:38:56.566Z,18.25
2022-07-30T04:42:02.045Z,18.27
2022-07-30T04:45:09.655Z,18.31
2022-07-30T04:48:17.359Z,18.31
2022-07-30T04:51:27.603Z,18.34
2022-07-30T04:54:39.576Z,18.37
2022-07-30T04:57:47.242Z,18.38
2022-07-30T05:00:55.614Z,18.36
2022-07-30T05:04:02.583Z,18.37
2022-07-30T05:07:09.076Z,18.39
2022-07-30T05:10:15.567Z,18.41
2022-07-30T05:13:22.304Z,18.39
2022-07-30T05:16:29.745Z,18.38
2022-07-30T05:19:35.429Z,18.41
2022-07-30T05:22:42.889Z,18.45
2022-07-30T05:25:56.667Z,18.52
2022-07-30T05:29:04.118Z,18.54
2022-07-30T05:32:12.821Z,18.56
2022-07-30T05:35:18.534Z,18.57
2022-07-30T05:38:24.752Z,18.48
2022-07-30T05:41:34.454Z,18.46
2022-07-30T05:44:40.005Z,18.48
2022-07-30T05:47:45.600Z,18.53
2022-07-30T05:50:51.061Z,18.59
2022-07-30T05:53:56.521Z,18.65
2022-07-30T05:57:02.307Z,18.71
2022-07-30T06:00:10.886Z,18.75
2022-07-30T06:03:16.504Z,18.79
2022-07-30T06:06:23.337Z,18.82
2022-07-30T06:09:37.158Z,18.86
2022-07-30T06:12:43.543Z,18.90
2022-07-30T06:15:49.124Z,18.94
2022-07-30T06:18:54.715Z,19.00
2022-07-30T06:22:05.436Z,19.04
2022-07-30T06:25:12.997Z,19.06
2022-07-30T06:28:39.826Z,19.10
2022-07-30T06:31:45.431Z,19.15
2022-07-30T06:34:58.682Z,19.19
2022-07-30T06:38:08.265Z,19.22
2022-07-30T06:41:15.818Z,19.28
2022-07-30T06:44:21.302Z,19.35
2022-07-30T06:47:29.315Z,19.37
2022-07-30T06:50:36.991Z,19.38
2022-07-30T06:53:43.000Z,19.41
2022-07-30T06:56:48.624Z,19.45
2022-07-30T06:59:56.732Z,19.51
2022-07-30T07:03:03.037Z,19.55
2022-07-30T07:06:08.789Z,19.57
2022-07-30T07:09:14.413Z,19.65
2022-07-30T07:12:19.992Z,19.78
2022-07-30T07:15:36.233Z,19.90
2022-07-30T07:18:42.708Z,20.02
2022-07-30T07:21:48.962Z,20.13
2022-07-30T07:24:54.418Z,20.28
2022-07-30T07:28:11.680Z,20.40
2022-07-30T07:32:07.117Z,20.52
2022-07-30T07:34:44.483Z,20.66
2022-07-30T07:37:49.935Z,20.76
2022-07-30T07:40:56.099Z,20.84
2022-07-30T07:44:01.664Z,20.93
2022-07-30T07:47:07.728Z,21.03
2022-07-30T07:50:16.253Z,21.07
2022-07-30T07:53:21.694Z,21.08
2022-07-30T07:56:27.161Z,21.10
2022-07-30T07:59:39.848Z,21.12
2022-07-30T08:02:46.726Z,21.13
2022-07-30T08:05:58.016Z,21.15
2022-07-30T08:09:10.363Z,21.17
2022-07-30T08:12:15.986Z,21.18
2022-07-30T08:15:22.181Z,21.21
2022-07-30T08:18:28.018Z,21.24
2022-07-30T08:21:32.034Z,21.29
2022-07-30T08:24:37.614Z,21.35
2022-07-30T08:27:45.153Z,21.40
2022-07-30T08:30:51.024Z,21.47
2022-07-30T08:33:54.961Z,21.54
2022-07-30T08:37:00.521Z,21.63
2022-07-30T08:40:07.896Z,21.72
2022-07-30T08:43:13.615Z,21.81
2022-07-30T08:46:23.198Z,21.90
2022-07-30T08:49:29.022Z,21.98
2022-07-30T08:52:34.141Z,22.03
2022-07-30T08:55:39.617Z,22.11
2022-07-30T08:58:46.787Z,22.21
2022-07-30T09:01:52.656Z,22.33
2022-07-30T09:04:58.182Z,22.42
2022-07-30T09:08:08.839Z,22.51
2022-07-30T09:11:14.631Z,22.56
2022-07-30T09:14:20.052Z,22.62
2022-07-30T09:17:28.850Z,22.65
2022-07-30T09:20:37.979Z,22.70
2022-07-30T09:23:55.806Z,22.73
2022-07-30T09:27:03.129Z,22.74
2022-07-30T09:30:11.273Z,22.75
2022-07-30T09:33:18.477Z,22.79
2022-07-30T09:36:34.295Z,22.83
2022-07-30T09:39:42.754Z,22.87
2022-07-30T09:43:07.695Z,22.93
2022-07-30T09:46:13.804Z,23.00
2022-07-30T09:49:21.079Z,23.06
2022-07-30T09:52:31.453Z,23.07
2022-07-30T09:59:03.947Z,23.16
2022-07-30T10:02:10.846Z,23.26
2022-07-30T10:05:19.311Z,23.36
2022-07-30T10:08:41.874Z,23.49
2022-07-30T10:11:51.611Z,23.54
2022-07-30T10:14:59.334Z,23.56
2022-07-30T10:18:06.794Z,23.69
2022-07-30T10:21:16.960Z,23.89
2022-07-30T10:24:27.621Z,23.96
2022-07-30T10:27:34.973Z,24.00
2022-07-30T10:30:42.132Z,24.18
2022-07-30T10:33:47.632Z,24.33
2022-07-30T10:37:01.755Z,24.47
2022-07-30T10:40:30.673Z,24.59
2022-07-30T10:44:10.003Z,24.65
2022-07-30T10:47:18.848Z,24.81
2022-07-30T10:50:27.198Z,25.02
2022-07-30T10:53:37.976Z,25.25
2022-07-30T10:57:04.181Z,25.44
2022-07-30T11:00:17.950Z,25.67
2022-07-30T11:03:40.177Z,25.86
2022-07-30T11:06:46.827Z,25.92
2022-07-30T11:10:08.656Z,25.83
2022-07-30T11:13:15.317Z,25.90
2022-07-30T11:16:20.338Z,26.00
2022-07-30T11:19:56.707Z,26.03
2022-07-30T11:22:54.221Z,26.02
2022-07-30T11:25:59.873Z,26.06
2022-07-30T11:29:07.221Z,26.10
2022-07-30T11:32:31.993Z,26.09
2022-07-30T11:35:38.302Z,26.05
2022-07-30T11:39:05.200Z,25.99
2022-07-30T11:42:28.719Z,25.91
2022-07-30T11:45:34.401Z,25.81
2022-07-30T11:48:41.845Z,25.72
2022-07-30T11:51:48.937Z,25.69
2022-07-30T11:54:56.267Z,25.68
2022-07-30T11:58:03.572Z,25.70
2022-07-30T12:01:13.699Z,25.76
2022-07-30T12:04:19.368Z,25.75
2022-07-30T12:07:26.398Z,25.77
2022-07-30T12:10:32.025Z,25.78
2022-07-30T12:13:45.477Z,25.84
2022-07-30T12:16:55.824Z,25.94
2022-07-30T12:20:01.253Z,26.05
2022-07-30T12:23:13.160Z,26.13
2022-07-30T12:26:26.888Z,26.12
2022-07-30T12:29:33.287Z,26.14
2022-07-30T12:32:39.106Z,26.10
2022-07-30T12:35:50.223Z,25.98
2022-07-30T12:38:57.940Z,26.00
2022-07-30T12:42:03.600Z,26.06
2022-07-30T12:45:28.544Z,26.03
2022-07-30T12:48:32.473Z,26.00
2022-07-30T12:51:52.297Z,25.94
2022-07-30T12:55:09.005Z,25.93
2022-07-30T12:58:14.594Z,25.98
2022-07-30T13:01:19.106Z,26.06
2022-07-30T13:04:24.747Z,26.12
2022-07-30T13:07:32.227Z,26.17
2022-07-30T13:10:38.233Z,26.31
2022-07-30T13:13:43.760Z,26.36
2022-07-30T13:16:48.398Z,26.31
2022-07-30T13:19:54.055Z,26.14
2022-07-30T13:23:01.999Z,25.93
2022-07-30T13:26:09.341Z,25.88
2022-07-30T13:29:15.139Z,25.97
2022-07-30T13:32:21.257Z,26.03
2022-07-30T13:35:26.721Z,26.15
2022-07-30T13:38:30.664Z,26.16
2022-07-30T13:41:36.868Z,26.12
2022-07-30T13:44:42.308Z,25.98
2022-07-30T13:47:48.543Z,25.90
2022-07-30T13:50:54.033Z,25.90
2022-07-30T13:53:58.607Z,25.98
2022-07-30T13:57:04.424Z,26.00
2022-07-30T14:00:12.839Z,26.00
2022-07-30T14:03:18.372Z,25.95
2022-07-30T14:06:24.402Z,25.77
2022-07-30T14:09:29.877Z,25.70
2022-07-30T14:12:33.998Z,25.64
2022-07-30T14:15:39.646Z,25.33
2022-07-30T14:18:46.429Z,25.01
2022-07-30T14:21:50.448Z,24.79
2022-07-30T14:24:56.024Z,24.53
2022-07-30T14:28:00.046Z,24.27
2022-07-30T14:31:06.398Z,24.06
2022-07-30T14:34:13.167Z,23.73
2022-07-30T14:37:18.837Z,23.58
2022-07-30T14:40:22.951Z,23.41
2022-07-30T14:43:28.427Z,23.02
2022-07-30T14:46:33.976Z,22.70
2022-07-30T14:49:39.532Z,22.49
2022-07-30T14:52:47.263Z,22.28
2022-07-30T14:55:52.814Z,22.13
2022-07-30T14:58:58.968Z,22.03
2022-07-30T15:02:05.296Z,21.86
2022-07-30T15:05:16.216Z,21.68
2022-07-30T15:08:21.980Z,21.64
2022-07-30T15:11:26.016Z,21.57
2022-07-30T15:14:31.755Z,21.43
2022-07-30T15:17:37.594Z,21.42
2022-07-30T15:20:43.144Z,21.42
2022-07-30T15:23:48.544Z,21.45
2022-07-30T15:26:54.948Z,21.43
2022-07-30T15:30:00.982Z,21.46
2022-07-30T15:33:06.554Z,21.50
2022-07-30T15:36:14.552Z,21.59
2022-07-30T15:39:20.004Z,21.65
2022-07-30T15:42:27.355Z,21.70
2022-07-30T15:45:50.119Z,21.74
2022-07-30T15:48:58.465Z,21.77
2022-07-30T15:52:07.289Z,21.81
2022-07-30T15:55:14.099Z,21.85
2022-07-30T15:58:19.863Z,21.91
2022-07-30T16:01:25.339Z,21.94
2022-07-30T16:04:33.080Z,21.96
2022-07-30T16:07:38.776Z,21.98
2022-07-30T16:10:42.774Z,21.99
2022-07-30T16:13:49.525Z,22.00
2022-07-30T16:16:54.963Z,22.00
2022-07-30T16:20:00.529Z,21.96
2022-07-30T16:23:11.783Z,21.91
2022-07-30T16:26:19.059Z,21.87
2022-07-30T16:29:23.018Z,21.83
2022-07-30T16:32:28.854Z,21.80
2022-07-30T16:35:34.532Z,21.77
2022-07-30T16:38:54.984Z,21.73
2022-07-30T16:42:01.037Z,21.64
2022-07-30T16:45:07.917Z,21.56
2022-07-30T16:48:14.272Z,21.55
2022-07-30T16:51:20.131Z,21.52
2022-07-30T16:54:25.775Z,21.48
2022-07-30T16:57:31.277Z,21.45
2022-07-30T17:00:36.836Z,21.43
2022-07-30T17:03:42.356Z,21.38
2022-07-30T17:06:47.852Z,21.27
2022-07-30T17:09:54.235Z,21.14
2022-07-30T17:12:59.860Z,21.08
2022-07-30T17:16:07.752Z,21.06
2022-07-30T17:19:13.395Z,21.04
2022-07-30T17:22:18.984Z,21.04
2022-07-30T17:25:27.493Z,21.02
2022-07-30T17:28:33.161Z,20.99
2022-07-30T17:31:40.017Z,20.98
2022-07-30T17:34:45.668Z,20.98
2022-07-30T17:37:51.420Z,20.93
2022-07-30T17:40:56.970Z,20.81
2022-07-30T17:44:02.520Z,20.70
2022-07-30T17:47:13.769Z,20.61
2022-07-30T17:50:20.197Z,20.61
2022-07-30T17:53:25.698Z,20.65
2022-07-30T17:56:31.176Z,20.62
2022-07-30T17:59:36.628Z,20.49
2022-07-30T18:02:42.251Z,20.42
2022-07-30T18:05:48.039Z,20.45
2022-07-30T18:08:52.376Z,20.48
2022-07-30T18:11:57.884Z,20.43
2022-07-30T18:15:07.413Z,20.44
2022-07-30T18:18:12.844Z,20.49
2022-07-30T18:21:18.399Z,20.49
2022-07-30T18:24:24.879Z,20.43
2022-07-30T18:27:31.125Z,20.34
2022-07-30T18:30:36.577Z,20.24
2022-07-30T18:33:42.078Z,20.23
2022-07-30T18:36:51.127Z,20.17
2022-07-30T18:39:56.821Z,20.11
2022-07-30T18:43:02.773Z,20.04
2022-07-30T18:46:08.799Z,19.93
2022-07-30T18:49:35.714Z,19.78
2022-07-30T18:52:40.171Z,19.60
2022-07-30T18:55:45.844Z,19.60
2022-07-30T18:58:51.281Z,19.55
2022-07-30T19:01:56.936Z,19.45
2022-07-30T19:05:02.585Z,19.37
2022-07-30T19:08:08.652Z,19.31
2022-07-30T19:11:14.181Z,19.29
2022-07-30T19:14:20.272Z,19.33
2022-07-30T19:17:46.681Z,19.38
2022-07-30T19:20:51.942Z,19.41
2022-07-30T19:23:57.388Z,19.41
2022-07-30T19:27:03.072Z,19.42
2022-07-30T19:30:10.269Z,19.39
2022-07-30T19:33:16.567Z,19.39
2022-07-30T19:36:22.104Z,19.38
2022-07-30T19:39:28.621Z,19.40
2022-07-30T19:42:34.291Z,19.38
2022-07-30T19:45:47.091Z,19.39
2022-07-30T19:48:53.732Z,19.41
2022-07-30T19:52:22.506Z,19.42
2022-07-30T19:55:35.854Z,19.42
2022-07-30T19:58:41.984Z,19.44
2022-07-30T20:01:51.721Z,19.47
2022-07-30T20:04:57.508Z,19.48
2022-07-30T20:08:04.396Z,19.51
2022-07-30T20:11:10.903Z,19.53
2022-07-30T20:14:22.969Z,19.53
2022-07-30T20:17:28.528Z,19.52
2022-07-30T20:20:33.987Z,19.52
2022-07-30T20:23:39.720Z,19.52
2022-07-30T20:26:46.891Z,19.52
2022-07-30T20:29:52.332Z,19.53
2022-07-30T20:32:56.911Z,19.55
2022-07-30T20:36:03.813Z,19.55
2022-07-30T20:39:09.521Z,19.53
2022-07-30T20:42:19.159Z,19.55
2022-07-30T20:45:37.891Z,19.56
2022-07-30T20:48:46.425Z,19.57
2022-07-30T20:51:52.855Z,19.56
2022-07-30T20:54:59.326Z,19.58
2022-07-30T20:58:16.270Z,19.58
2022-07-30T21:01:22.466Z,19.56
2022-07-30T21:04:28.252Z,19.57
2022-07-30T21:07:36.734Z,19.57
2022-07-30T21:10:44.422Z,19.53
2022-07-30T21:13:50.495Z,19.41
2022-07-30T21:16:57.373Z,19.37
2022-07-30T21:20:01.898Z,19.35
2022-07-30T21:23:11.509Z,19.35
2022-07-30T21:26:17.346Z,19.35
2022-07-30T21:29:29.090Z,19.35
2022-07-30T21:32:34.576Z,19.36
2022-07-30T21:35:40.119Z,19.38
2022-07-30T21:38:47.366Z,19.37
2022-07-30T21:41:52.818Z,19.39
2022-07-30T21:45:01.488Z,19.38
2022-07-30T21:48:10.876Z,19.34
2022-07-30T21:51:16.780Z,19.35
2022-07-30T21:54:28.831Z,19.32
2022-07-30T21:57:36.611Z,19.30
2022-07-30T22:01:17.491Z,19.25
2022-07-30T22:04:27.600Z,19.18
2022-07-30T22:07:33.233Z,19.11
2022-07-30T22:10:42.876Z,19.09
2022-07-30T22:13:53.989Z,19.06
2022-07-30T22:17:00.522Z,19.06
2022-07-30T22:20:12.542Z,19.04
2022-07-30T22:23:18.120Z,18.99
2022-07-30T22:26:23.780Z,18.89
2022-07-30T22:29:34.024Z,18.86
2022-07-30T22:32:41.301Z,18.87
2022-07-30T22:35:49.625Z,18.86
2022-07-30T22:38:58.415Z,18.87
2022-07-30T22:42:05.520Z,18.87
2022-07-30T22:45:44.880Z,18.84
2022-07-30T22:48:44.574Z,18.83
2022-07-30T22:52:05.079Z,18.82
2022-07-30T22:55:16.252Z,18.77
2022-07-30T22:58:28.827Z,18.70
2022-07-30T23:01:35.993Z,18.64
2022-07-30T23:04:46.861Z,18.57
2022-07-30T23:07:54.645Z,18.51
2022-07-30T23:11:01.208Z,18.46
2022-07-30T23:14:07.721Z,18.40
2022-07-30T23:17:13.977Z,18.34
2022-07-30T23:20:21.431Z,18.30
2022-07-30T23:23:26.884Z,18.28
2022-07-30T23:26:36.649Z,18.31
2022-07-30T23:29:42.060Z,18.27
2022-07-30T23:32:47.499Z,18.25
2022-07-30T23:35:54.118Z,18.26
2022-07-30T23:38:59.857Z,18.24
2022-07-30T23:42:05.537Z,18.21
2022-07-30T23:45:12.364Z,18.16
2022-07-30T23:48:17.917Z,18.09
2022-07-30T23:51:23.769Z,18.04
2022-07-30T23:54:28.999Z,18.03
2022-07-30T23:57:34.496Z,17.98
